Time;durP1;ratioP1;P1;durP2;ratioP2;P2;SDS_P1;SDS_P2;PMS_P1;PMS_P2;Temp;Humidity;BMP_temperature;BMP_pressure;BME280_temperature;BME280_humidity;BME280_pressure;Samples;Min_cycle;Max_cycle;Signal;HPM_P1;HPM_P2
2022/09/01 00:00:57;;;;;;;;;;;23.00;44.10;;;;;;5094630;28;19946;-60
2022/09/01 00:03:24;;;;;;;;;;;23.00;43.50;;;;;;5095652;28;19950;-60
2022/09/01 00:05:55;;;;;;;;;;;23.00;43.50;;;;;;5111652;28;19920;-60
2022/09/01 00:08:22;;;;;;;;;;;23.00;43.50;;;;;;5112112;28;20353;-60
2022/09/01 00:10:49;;;;;;;;;;;23.00;43.50;;;;;;5111424;28;19924;-60
2022/09/01 00:13:16;;;;;;;;;;;23.00;43.50;;;;;;5111678;28;19924;-60
2022/09/01 00:15:43;;;;;;;;;;;23.00;43.50;;;;;;5093789;28;20015;-60
2022/09/01 00:18:09;;;;;;;;;;;23.00;43.60;;;;;;5111144;28;20031;-60
2022/09/01 00:20:36;;;;;;;;;;;23.00;43.60;;;;;;5111729;28;19920;-60
2022/09/01 00:23:04;;;;;;;;;;;23.00;43.60;;;;;;5094585;28;19920;-60
2022/09/01 00:25:31;;;;;;;;;;;23.00;43.60;;;;;;5095682;28;19973;-60
2022/09/01 00:27:59;;;;;;;;;;;23.00;43.60;;;;;;5095397;28;20018;-60
2022/09/01 00:30:28;;;;;;;;;;;23.00;43.60;;;;;;5095531;28;20385;-60
2022/09/01 00:32:58;;;;;;;;;;;23.00;43.60;;;;;;5111601;28;19973;-60
2022/09/01 00:35:25;;;;;;;;;;;23.00;43.70;;;;;;5095248;28;19973;-60
2022/09/01 00:37:51;;;;;;;;;;;23.00;43.70;;;;;;5110743;28;19920;-60
2022/09/01 00:40:21;;;;;;;;;;;23.00;43.70;;;;;;5093830;28;19969;-60
2022/09/01 00:42:49;;;;;;;;;;;23.00;43.70;;;;;;5111266;28;19950;-60
2022/09/01 00:45:18;;;;;;;;;;;23.00;43.70;;;;;;5110550;28;19924;-60
2022/09/01 00:47:44;;;;;;;;;;;23.00;43.70;;;;;;5111333;28;19920;-60
2022/09/01 00:50:11;;;;;;;;;;;23.00;43.70;;;;;;5110718;28;19920;-60
2022/09/01 00:52:41;;;;;;;;;;;23.00;43.70;;;;;;5093944;28;19981;-60
2022/09/01 00:55:09;;;;;;;;;;;23.00;43.80;;;;;;5110578;28;19927;-61
2022/09/01 00:57:37;;;;;;;;;;;22.90;43.70;;;;;;5093563;28;19920;-60
2022/09/01 01:00:05;;;;;;;;;;;23.00;43.80;;;;;;5094397;28;19926;-60
2022/09/01 01:02:32;;;;;;;;;;;23.00;43.80;;;;;;5094603;28;19924;-60
2022/09/01 01:04:59;;;;;;;;;;;22.90;43.70;;;;;;5094274;28;19920;-60
2022/09/01 01:07:26;;;;;;;;;;;22.90;43.80;;;;;;5095000;28;19992;-60
2022/09/01 01:09:53;;;;;;;;;;;22.90;43.80;;;;;;5110703;28;19920;-60
2022/09/01 01:12:19;;;;;;;;;;;23.00;43.90;;;;;;5111036;28;19927;-61
2022/09/01 01:14:48;;;;;;;;;;;22.90;43.80;;;;;;5092893;28;19927;-60
2022/09/01 01:17:15;;;;;;;;;;;22.90;43.80;;;;;;5109781;28;19920;-60
2022/09/01 01:25:17;;;;;;;;;;;22.90;43.80;;;;;;5110691;28;19920;-60
2022/09/01 01:27:46;;;;;;;;;;;22.90;43.80;;;;;;5109369;28;19962;-60
2022/09/01 01:30:13;;;;;;;;;;;22.90;43.80;;;;;;5109678;28;19920;-60
2022/09/01 01:32:41;;;;;;;;;;;22.90;43.90;;;;;;5110840;28;19920;-60
2022/09/01 01:35:13;;;;;;;;;;;22.90;43.90;;;;;;5109895;28;19927;-60
2022/09/01 01:37:42;;;;;;;;;;;22.90;43.90;;;;;;5093168;28;19969;-60
2022/09/01 01:40:14;;;;;;;;;;;22.90;44.50;;;;;;5110627;28;20245;-60
2022/09/01 01:42:44;;;;;;;;;;;22.90;43.90;;;;;;5106095;28;19921;-60
2022/09/01 01:45:12;;;;;;;;;;;22.90;43.90;;;;;;5090564;28;19931;-60
2022/09/01 01:47:38;;;;;;;;;;;22.90;44.00;;;;;;5107383;28;19921;-60
2022/09/01 01:50:08;;;;;;;;;;;22.90;44.00;;;;;;5090420;28;19925;-60
2022/09/01 01:52:34;;;;;;;;;;;22.90;44.00;;;;;;5089724;28;19970;-60
2022/09/01 01:55:01;;;;;;;;;;;22.90;44.00;;;;;;5072697;28;19928;-60
2022/09/01 01:57:31;;;;;;;;;;;22.90;44.00;;;;;;5073966;28;19967;-60
2022/09/01 02:00:02;;;;;;;;;;;22.90;44.10;;;;;;5090500;28;19935;-61
2022/09/01 02:02:28;;;;;;;;;;;22.90;44.00;;;;;;5089986;28;19927;-60
2022/09/01 02:04:55;;;;;;;;;;;22.90;44.10;;;;;;5089356;28;19921;-60
2022/09/01 02:07:22;;;;;;;;;;;22.90;44.10;;;;;;5089841;28;19921;-60
2022/09/01 02:09:52;;;;;;;;;;;22.90;44.10;;;;;;5089219;28;19920;-60
2022/09/01 02:12:20;;;;;;;;;;;22.90;44.10;;;;;;5089447;28;19920;-60
2022/09/01 02:14:47;;;;;;;;;;;22.90;44.10;;;;;;5089923;28;20010;-60
2022/09/01 02:17:15;;;;;;;;;;;22.90;44.10;;;;;;5089610;28;19920;-60
2022/09/01 02:19:42;;;;;;;;;;;22.90;44.10;;;;;;5089875;28;19950;-61
2022/09/01 02:22:09;;;;;;;;;;;22.90;44.10;;;;;;5073549;28;19963;-60
2022/09/01 02:24:36;;;;;;;;;;;22.90;44.20;;;;;;5072377;28;19928;-60
2022/09/01 02:27:05;;;;;;;;;;;22.90;44.20;;;;;;5089141;28;19927;-61
2022/09/01 02:29:32;;;;;;;;;;;22.90;44.20;;;;;;5073292;28;19928;-60
2022/09/01 02:31:59;;;;;;;;;;;22.90;44.20;;;;;;5073383;28;19925;-60
2022/09/01 02:34:27;;;;;;;;;;;22.90;44.20;;;;;;5073754;28;19928;-60
2022/09/01 02:36:54;;;;;;;;;;;22.90;44.20;;;;;;5089477;28;19971;-60
2022/09/01 02:39:22;;;;;;;;;;;22.90;44.30;;;;;;5073702;28;20312;-60
2022/09/01 02:41:49;;;;;;;;;;;22.90;44.20;;;;;;5076561;28;19920;-60
2022/09/01 02:44:18;;;;;;;;;;;22.90;44.30;;;;;;5092733;28;19974;-60
2022/09/01 02:46:45;;;;;;;;;;;22.80;44.20;;;;;;5092785;28;19974;-60
2022/09/01 02:49:16;;;;;;;;;;;22.80;44.20;;;;;;5075471;28;19920;-60
2022/09/01 02:51:44;;;;;;;;;;;22.80;44.20;;;;;;5076597;28;19927;-61
2022/09/01 02:54:18;;;;;;;;;;;22.80;44.20;;;;;;5092462;28;20333;-60
2022/09/01 02:56:47;;;;;;;;;;;22.80;44.20;;;;;;5075671;28;19967;-60
2022/09/01 02:59:14;;;;;;;;;;;22.80;44.20;;;;;;5075520;28;19927;-60
2022/09/01 03:01:41;;;;;;;;;;;22.80;44.20;;;;;;5093156;28;19963;-61
2022/09/01 03:04:08;;;;;;;;;;;22.80;44.30;;;;;;5075260;28;19921;-61
2022/09/01 03:06:36;;;;;;;;;;;22.80;44.30;;;;;;5092249;28;20319;-60
2022/09/01 03:09:05;;;;;;;;;;;22.80;44.30;;;;;;5076604;28;20262;-61
2022/09/01 03:11:33;;;;;;;;;;;22.80;44.30;;;;;;5092048;28;19954;-61
2022/09/01 03:13:59;;;;;;;;;;;22.80;44.30;;;;;;5092636;28;19920;-60
2022/09/01 03:16:26;;;;;;;;;;;22.80;44.30;;;;;;5075232;28;19927;-59
2022/09/01 03:18:53;;;;;;;;;;;22.80;44.30;;;;;;5075365;28;19966;-60
2022/09/01 03:21:20;;;;;;;;;;;22.80;44.30;;;;;;5075973;28;20312;-61
2022/09/01 03:23:46;;;;;;;;;;;22.80;44.30;;;;;;5092008;28;20015;-60
2022/09/01 03:26:17;;;;;;;;;;;22.80;44.40;;;;;;5092188;28;19962;-60
2022/09/01 03:28:44;;;;;;;;;;;22.80;44.40;;;;;;5074898;28;19920;-60
2022/09/01 03:31:10;;;;;;;;;;;22.80;44.40;;;;;;5075227;28;19924;-60
2022/09/01 03:33:37;;;;;;;;;;;22.80;44.40;;;;;;5091993;28;19945;-60
2022/09/01 03:36:04;;;;;;;;;;;22.80;44.40;;;;;;5091671;28;20016;-60
2022/09/01 03:38:32;;;;;;;;;;;22.80;44.40;;;;;;5090434;28;19927;-61
2022/09/01 03:41:00;;;;;;;;;;;22.80;44.40;;;;;;5094933;28;19920;-60
2022/09/01 03:43:28;;;;;;;;;;;22.80;44.40;;;;;;5095369;28;19989;-60
2022/09/01 03:45:56;;;;;;;;;;;22.80;44.40;;;;;;5095832;28;19920;-60
2022/09/01 03:48:27;;;;;;;;;;;22.80;44.40;;;;;;5094989;28;19954;-60
2022/09/01 03:50:54;;;;;;;;;;;22.80;44.40;;;;;;5093709;28;19920;-60
2022/09/01 03:53:21;;;;;;;;;;;22.70;44.30;;;;;;5095967;28;19920;-60
2022/09/01 03:55:48;;;;;;;;;;;22.70;44.30;;;;;;5096173;28;19920;-60
2022/09/01 03:58:18;;;;;;;;;;;22.70;44.30;;;;;;5095983;28;19977;-60
2022/09/01 04:00:47;;;;;;;;;;;22.70;44.30;;;;;;5094480;28;19956;-60
2022/09/01 04:03:15;;;;;;;;;;;22.70;44.30;;;;;;5094631;28;19920;-60
2022/09/01 04:05:42;;;;;;;;;;;22.70;44.30;;;;;;5095347;28;19942;-60
2022/09/01 04:08:11;;;;;;;;;;;22.70;44.30;;;;;;5094771;28;19985;-60
2022/09/01 04:10:38;;;;;;;;;;;22.70;44.30;;;;;;5094561;28;19919;-60
2022/09/01 04:13:04;;;;;;;;;;;22.70;44.30;;;;;;5094514;28;19920;-61
2022/09/01 04:15:33;;;;;;;;;;;22.70;44.30;;;;;;5095541;28;19974;-60
2022/09/01 04:18:10;;;;;;;;;;;22.70;44.30;;;;;;5094438;28;19920;-61
2022/09/01 04:20:47;;;;;;;;;;;22.70;44.30;;;;;;5094936;28;19946;-61
2022/09/01 04:23:19;;;;;;;;;;;22.70;44.40;;;;;;5095235;28;19955;-61
2022/09/01 04:25:48;;;;;;;;;;;22.70;44.40;;;;;;5094484;28;20315;-60
2022/09/01 04:28:21;;;;;;;;;;;22.80;44.50;;;;;;5095256;28;19966;-60
2022/09/01 04:30:49;;;;;;;;;;;22.70;44.40;;;;;;5093967;28;19926;-60
2022/09/01 04:33:18;;;;;;;;;;;22.70;44.40;;;;;;5094673;28;19959;-61
2022/09/01 04:35:44;;;;;;;;;;;22.80;44.50;;;;;;5095131;28;19920;-60
2022/09/01 04:38:13;;;;;;;;;;;22.70;44.50;;;;;;5095624;28;19924;-61
2022/09/01 04:40:40;;;;;;;;;;;22.70;44.50;;;;;;5094233;28;19924;-60
2022/09/01 04:43:06;;;;;;;;;;;22.70;44.50;;;;;;5093444;28;19978;-61
2022/09/01 04:45:35;;;;;;;;;;;22.70;44.50;;;;;;5093686;28;19931;-61
2022/09/01 04:48:02;;;;;;;;;;;22.70;44.50;;;;;;5094208;28;20090;-61
2022/09/01 04:50:31;;;;;;;;;;;22.70;44.50;;;;;;5093957;28;19920;-61
2022/09/01 04:52:59;;;;;;;;;;;22.70;44.50;;;;;;5094313;28;19921;-61
2022/09/01 04:55:28;;;;;;;;;;;22.70;44.50;;;;;;5077047;28;19920;-61
2022/09/01 04:57:56;;;;;;;;;;;22.70;44.50;;;;;;5093663;28;19920;-60
2022/09/01 05:00:23;;;;;;;;;;;22.70;44.50;;;;;;5093411;28;19921;-61
2022/09/01 05:02:52;;;;;;;;;;;22.70;44.50;;;;;;5094156;28;19927;-61
2022/09/01 05:05:19;;;;;;;;;;;22.70;45.10;;;;;;5093420;28;19969;-61
2022/09/01 05:07:49;;;;;;;;;;;22.70;44.50;;;;;;5094593;28;19919;-61
2022/09/01 05:10:17;;;;;;;;;;;22.70;44.40;;;;;;5094687;28;20357;-61
2022/09/01 05:12:44;;;;;;;;;;;22.60;44.30;;;;;;5093297;28;19980;-61
2022/09/01 05:15:12;;;;;;;;;;;22.60;44.30;;;;;;5093308;28;20395;-60
2022/09/01 05:17:39;;;;;;;;;;;22.60;44.30;;;;;;5093223;28;19924;-61
2022/09/01 05:20:06;;;;;;;;;;;22.60;44.30;;;;;;5094236;28;19921;-61
2022/09/01 05:22:33;;;;;;;;;;;22.60;44.20;;;;;;5094358;28;19927;-61
2022/09/01 05:25:11;;;;;;;;;;;22.70;44.40;;;;;;5092797;28;19924;-60
2022/09/01 05:27:39;;;;;;;;;;;22.60;44.30;;;;;;5093300;28;19955;-60
2022/09/01 05:30:07;;;;;;;;;;;22.60;44.30;;;;;;5093155;28;19927;-61
2022/09/01 05:32:35;;;;;;;;;;;22.60;44.30;;;;;;5093019;28;19924;-61
2022/09/01 05:35:05;;;;;;;;;;;22.60;44.30;;;;;;5093001;28;19973;-61
2022/09/01 05:37:32;;;;;;;;;;;22.70;44.40;;;;;;5095066;28;20253;-61
2022/09/01 05:40:00;;;;;;;;;;;22.70;44.50;;;;;;5092895;28;19927;-60
2022/09/01 05:42:27;;;;;;;;;;;22.70;44.50;;;;;;5093364;28;19963;-61
2022/09/01 05:44:54;;;;;;;;;;;22.60;44.40;;;;;;5092538;28;20023;-61
2022/09/01 05:47:22;;;;;;;;;;;22.60;44.40;;;;;;5092932;28;19943;-61
2022/09/01 05:49:49;;;;;;;;;;;22.60;44.80;;;;;;5093230;28;19924;-60
2022/09/01 05:52:16;;;;;;;;;;;22.70;44.60;;;;;;5094135;28;19920;-60
2022/09/01 05:54:46;;;;;;;;;;;22.60;44.50;;;;;;5092901;28;19920;-60
2022/09/01 05:57:14;;;;;;;;;;;22.60;44.60;;;;;;5092552;28;20377;-60
2022/09/01 05:59:41;;;;;;;;;;;22.60;44.60;;;;;;5092739;28;19920;-61
2022/09/01 06:02:08;;;;;;;;;;;22.60;44.60;;;;;;5093555;28;19930;-60
2022/09/01 06:04:37;;;;;;;;;;;22.70;44.80;;;;;;5093335;28;19956;-60
2022/09/01 06:07:07;;;;;;;;;;;22.60;44.70;;;;;;5092642;28;19920;-61
2022/09/01 06:09:34;;;;;;;;;;;22.70;44.80;;;;;;5092624;28;19920;-61
2022/09/01 06:12:01;;;;;;;;;;;22.70;44.80;;;;;;5092383;28;19968;-60
2022/09/01 06:14:29;;;;;;;;;;;22.70;44.80;;;;;;5093605;28;20272;-61
2022/09/01 06:16:57;;;;;;;;;;;22.70;45.40;;;;;;5097572;28;19973;-61
2022/09/01 06:19:24;;;;;;;;;;;22.70;44.80;;;;;;5097379;28;19920;-60
2022/09/01 06:21:52;;;;;;;;;;;22.70;44.80;;;;;;5096500;28;19927;-60
2022/09/01 06:24:18;;;;;;;;;;;22.70;44.80;;;;;;5097385;28;19920;-59
2022/09/01 06:26:45;;;;;;;;;;;22.70;44.80;;;;;;5096278;28;19942;-61
2022/09/01 06:29:14;;;;;;;;;;;22.70;44.80;;;;;;5096839;28;19928;-61
2022/09/01 06:31:44;;;;;;;;;;;22.70;44.90;;;;;;5097009;28;19974;-60
2022/09/01 06:34:12;;;;;;;;;;;22.70;45.00;;;;;;5096956;28;19971;-60
2022/09/01 06:36:41;;;;;;;;;;;22.70;45.00;;;;;;5096282;28;19926;-61
2022/09/01 06:39:12;;;;;;;;;;;22.70;45.00;;;;;;5096174;28;19920;-61
2022/09/01 06:41:39;;;;;;;;;;;22.70;45.00;;;;;;5096121;28;20414;-61
2022/09/01 06:44:06;;;;;;;;;;;22.70;45.10;;;;;;5097444;28;19920;-62
2022/09/01 06:46:33;;;;;;;;;;;22.70;45.10;;;;;;5096625;28;19920;-61
2022/09/01 06:49:02;;;;;;;;;;;22.70;45.10;;;;;;5096783;28;19920;-61
2022/09/01 06:51:30;;;;;;;;;;;22.70;45.10;;;;;;5093415;28;19927;-61
2022/09/01 06:53:58;;;;;;;;;;;22.80;45.20;;;;;;5095745;28;19927;-61
2022/09/01 06:56:28;;;;;;;;;;;22.70;45.10;;;;;;5112548;28;19927;-62
2022/09/01 06:58:55;;;;;;;;;;;22.70;45.20;;;;;;5113025;28;19924;-60
2022/09/01 07:01:22;;;;;;;;;;;22.80;45.20;;;;;;5113646;28;19970;-61
2022/09/01 07:03:50;;;;;;;;;;;22.80;45.20;;;;;;5097071;28;19923;-61
2022/09/01 07:06:22;;;;;;;;;;;22.80;45.20;;;;;;5113516;28;19926;-61
2022/09/01 07:08:49;;;;;;;;;;;22.80;45.30;;;;;;5112819;28;19920;-60
2022/09/01 07:11:26;;;;;;;;;;;22.80;45.30;;;;;;5112900;28;19924;-61
2022/09/01 07:13:53;;;;;;;;;;;22.80;45.30;;;;;;5112564;28;19967;-61
2022/09/01 07:16:21;;;;;;;;;;;22.80;45.40;;;;;;5112442;28;20018;-61
2022/09/01 07:18:48;;;;;;;;;;;22.80;45.40;;;;;;5113264;28;19926;-61
2022/09/01 07:21:15;;;;;;;;;;;22.80;45.50;;;;;;5097122;28;19927;-61
2022/09/01 07:23:43;;;;;;;;;;;22.80;45.40;;;;;;5113333;28;19920;-61
2022/09/01 07:26:13;;;;;;;;;;;22.80;45.40;;;;;;5112396;28;19927;-61
2022/09/01 07:28:40;;;;;;;;;;;22.80;45.50;;;;;;5112259;28;20006;-61
2022/09/01 07:31:07;;;;;;;;;;;22.80;45.50;;;;;;5112392;28;19967;-61
2022/09/01 07:33:34;;;;;;;;;;;22.80;45.40;;;;;;5113030;28;19920;-60
2022/09/01 07:36:03;;;;;;;;;;;22.80;45.50;;;;;;5096283;28;19927;-61
2022/09/01 07:38:31;;;;;;;;;;;22.80;45.50;;;;;;5096713;28;19920;-60
2022/09/01 07:41:02;;;;;;;;;;;22.80;45.40;;;;;;5111895;28;19969;-59
2022/09/01 07:43:30;;;;;;;;;;;22.80;45.40;;;;;;5111914;28;19920;-61
2022/09/01 07:45:58;;;;;;;;;;;22.80;45.40;;;;;;5112910;28;19946;-61
2022/09/01 07:48:26;;;;;;;;;;;22.80;45.50;;;;;;5111852;28;19950;-60
2022/09/01 07:50:56;;;;;;;;;;;22.90;45.50;;;;;;5112130;28;19977;-60
2022/09/01 07:53:24;;;;;;;;;;;22.90;45.50;;;;;;5094549;28;19970;-60
2022/09/01 07:55:51;;;;;;;;;;;22.90;45.50;;;;;;5095794;28;19920;-60
2022/09/01 07:58:19;;;;;;;;;;;22.90;45.50;;;;;;5111630;28;19927;-62
2022/09/01 08:00:46;;;;;;;;;;;22.90;45.50;;;;;;5095676;28;20214;-60
2022/09/01 08:03:13;;;;;;;;;;;22.90;45.50;;;;;;5112414;28;19920;-60
2022/09/01 08:05:39;;;;;;;;;;;22.90;45.50;;;;;;5096087;28;19920;-61
2022/09/01 08:08:06;;;;;;;;;;;22.90;45.50;;;;;;5096077;28;19992;-60
2022/09/01 08:10:33;;;;;;;;;;;22.90;45.50;;;;;;5095639;28;19920;-60
2022/09/01 08:13:00;;;;;;;;;;;22.90;45.50;;;;;;5111885;28;19963;-61
2022/09/01 08:15:28;;;;;;;;;;;22.90;45.40;;;;;;5111597;28;19955;-60
2022/09/01 08:17:54;;;;;;;;;;;22.90;45.40;;;;;;5111483;28;19923;-61
2022/09/01 08:20:21;;;;;;;;;;;22.90;45.40;;;;;;5109905;28;19924;-61
2022/09/01 08:22:48;;;;;;;;;;;22.90;45.40;;;;;;5111703;28;19920;-61
2022/09/01 08:25:15;;;;;;;;;;;22.90;45.40;;;;;;5111362;28;20247;-61
2022/09/01 08:27:42;;;;;;;;;;;22.90;45.40;;;;;;5111087;28;20008;-60
2022/09/01 08:30:10;;;;;;;;;;;22.90;45.30;;;;;;5110909;28;19928;-60
2022/09/01 08:32:40;;;;;;;;;;;22.90;45.40;;;;;;5095293;28;19927;-60
2022/09/01 08:35:08;;;;;;;;;;;22.90;45.30;;;;;;5093939;28;19973;-61
2022/09/01 08:37:35;;;;;;;;;;;22.90;45.30;;;;;;5110860;28;20354;-61
2022/09/01 08:40:03;;;;;;;;;;;22.90;45.30;;;;;;5093845;28;19927;-61
2022/09/01 08:42:35;;;;;;;;;;;22.90;45.30;;;;;;5110818;28;19920;-61
2022/09/01 08:45:03;;;;;;;;;;;23.00;45.40;;;;;;5111497;28;20015;-61
2022/09/01 08:47:30;;;;;;;;;;;22.90;45.30;;;;;;5110762;28;19969;-60
2022/09/01 08:49:58;;;;;;;;;;;22.90;45.20;;;;;;5111666;28;19924;-60
2022/09/01 08:52:26;;;;;;;;;;;23.00;45.30;;;;;;5111088;28;19920;-60
2022/09/01 08:54:54;;;;;;;;;;;22.90;45.20;;;;;;5093744;28;19969;-60
2022/09/01 08:57:21;;;;;;;;;;;22.90;45.10;;;;;;5111271;28;19920;-60
2022/09/01 08:59:48;;;;;;;;;;;22.90;45.10;;;;;;5094821;28;19920;-60
2022/09/01 09:02:21;;;;;;;;;;;22.90;45.10;;;;;;5110368;28;19926;-61
2022/09/01 09:04:51;;;;;;;;;;;22.90;45.10;;;;;;5093463;28;19920;-60
2022/09/01 09:07:21;;;;;;;;;;;22.90;45.10;;;;;;5110955;28;19973;-61
2022/09/01 09:09:49;;;;;;;;;;;22.90;45.10;;;;;;5110008;28;19950;-62
2022/09/01 09:12:25;;;;;;;;;;;22.90;45.10;;;;;;5109848;28;19942;-61
2022/09/01 09:14:55;;;;;;;;;;;22.90;45.00;;;;;;5094244;28;19924;-61
2022/09/01 09:17:24;;;;;;;;;;;22.90;45.00;;;;;;5110407;28;19931;-61
2022/09/01 09:19:50;;;;;;;;;;;23.00;45.00;;;;;;5110186;28;20018;-61
2022/09/01 09:22:18;;;;;;;;;;;22.90;45.00;;;;;;5110472;28;19924;-61
2022/09/01 09:24:49;;;;;;;;;;;22.90;44.90;;;;;;5110047;28;19970;-61
2022/09/01 09:27:17;;;;;;;;;;;23.00;45.00;;;;;;5110825;28;19920;-61
2022/09/01 09:29:43;;;;;;;;;;;23.00;44.90;;;;;;5103890;28;19974;-61
2022/09/01 09:32:11;;;;;;;;;;;23.00;44.90;;;;;;5074067;28;19970;-61
2022/09/01 09:34:38;;;;;;;;;;;23.00;44.80;;;;;;5089852;28;20403;-61
2022/09/01 09:37:32;;;;;;;;;;;23.00;44.80;;;;;;5089366;28;19924;-61
2022/09/01 09:40:04;;;;;;;;;;;23.00;44.80;;;;;;5049175;28;20015;-60
2022/09/01 09:42:31;;;;;;;;;;;23.00;44.70;;;;;;5090431;28;20356;-61
2022/09/01 09:44:58;;;;;;;;;;;23.00;44.70;;;;;;5089357;28;19921;-61
2022/09/01 09:47:35;;;;;;;;;;;23.00;44.60;;;;;;5089652;28;19959;-61
2022/09/01 09:50:11;;;;;;;;;;;23.00;44.50;;;;;;5075870;28;19943;-61
2022/09/01 09:52:38;;;;;;;;;;;23.00;44.40;;;;;;5094340;28;19927;-61
2022/09/01 09:55:06;;;;;;;;;;;23.00;44.40;;;;;;5078260;28;19921;-61
2022/09/01 09:57:34;;;;;;;;;;;23.00;44.30;;;;;;5093346;28;20304;-61
2022/09/01 10:00:02;;;;;;;;;;;23.00;44.20;;;;;;5078188;28;19928;-61
2022/09/01 10:02:31;;;;;;;;;;;23.00;44.80;;;;;;5077832;28;19921;-61
2022/09/01 10:04:58;;;;;;;;;;;23.00;44.10;;;;;;5093811;28;19928;-61
2022/09/01 10:07:26;;;;;;;;;;;23.00;44.10;;;;;;5093627;28;20246;-61
2022/09/01 10:09:53;;;;;;;;;;;23.00;44.10;;;;;;5094153;28;19920;-61
2022/09/01 10:12:21;;;;;;;;;;;23.00;44.10;;;;;;5093723;28;19920;-61
2022/09/01 10:14:50;;;;;;;;;;;23.00;44.00;;;;;;5077811;28;20358;-61
2022/09/01 10:17:17;;;;;;;;;;;23.00;43.90;;;;;;5093428;28;20015;-61
2022/09/01 10:19:46;;;;;;;;;;;23.00;43.90;;;;;;5077719;28;19970;-61
2022/09/01 10:22:13;;;;;;;;;;;23.00;43.90;;;;;;5077762;28;20023;-62
2022/09/01 10:24:39;;;;;;;;;;;23.00;43.90;;;;;;5077656;28;19925;-61
2022/09/01 10:27:07;;;;;;;;;;;23.00;43.80;;;;;;5093685;28;19920;-61
2022/09/01 10:29:37;;;;;;;;;;;23.00;43.80;;;;;;5093162;28;19920;-61
2022/09/01 10:32:07;;;;;;;;;;;23.00;43.70;;;;;;5092894;28;20003;-61
2022/09/01 10:34:35;;;;;;;;;;;23.00;43.60;;;;;;5092974;28;19962;-61
2022/09/01 10:37:02;;;;;;;;;;;23.00;43.60;;;;;;5077304;28;19927;-61
2022/09/01 10:39:28;;;;;;;;;;;23.00;43.60;;;;;;5093032;28;19920;-59
2022/09/01 10:41:55;;;;;;;;;;;23.00;43.60;;;;;;5093045;28;19920;-59
2022/09/01 10:44:24;;;;;;;;;;;23.00;42.90;;;;;;5093336;28;19921;-59
2022/09/01 10:46:52;;;;;;;;;;;23.00;42.30;;;;;;5092647;28;19920;-60
2022/09/01 10:49:20;;;;;;;;;;;23.00;41.50;;;;;;5092602;28;19942;-59
2022/09/01 10:51:47;;;;;;;;;;;22.90;41.20;;;;;;5077079;28;19935;-59
2022/09/01 10:54:33;;;;;;;;;;;22.90;40.90;;;;;;5092565;28;19927;-59
2022/09/01 10:57:00;;;;;;;;;;;22.90;41.00;;;;;;5093324;28;19921;-59
2022/09/01 10:59:27;;;;;;;;;;;22.90;40.70;;;;;;5092619;28;20023;-59
2022/09/01 11:02:08;;;;;;;;;;;22.80;40.90;;;;;;5092023;28;19920;-59
2022/09/01 11:04:53;;;;;;;;;;;22.80;40.70;;;;;;5092333;28;19978;-59
2022/09/01 11:07:29;;;;;;;;;;;22.80;40.80;;;;;;5093179;28;20007;-61
2022/09/01 11:10:07;;;;;;;;;;;22.80;40.90;;;;;;5076893;28;20235;-60
2022/09/01 11:12:45;;;;;;;;;;;22.80;41.10;;;;;;5076268;28;19942;-60
2022/09/01 11:15:45;;;;;;;;;;;22.80;41.20;;;;;;5092594;28;19967;-60
2022/09/01 11:18:15;;;;;;;;;;;22.80;41.30;;;;;;5054741;28;19947;-59
2022/09/01 11:20:43;;;;;;;;;;;22.80;41.40;;;;;;5038172;28;20016;-60
2022/09/01 11:23:11;;;;;;;;;;;22.80;41.50;;;;;;5053366;28;19934;-61
2022/09/01 11:25:39;;;;;;;;;;;22.80;41.50;;;;;;5092053;28;20341;-61
2022/09/01 11:28:09;;;;;;;;;;;22.80;41.50;;;;;;5092013;28;19993;-60
2022/09/01 11:30:50;;;;;;;;;;;22.80;41.50;;;;;;5092285;28;20019;-60
2022/09/01 11:33:39;;;;;;;;;;;22.80;41.50;;;;;;5092086;28;19943;-60
2022/09/01 11:36:07;;;;;;;;;;;22.80;41.60;;;;;;5092615;28;19927;-60
2022/09/01 11:38:46;;;;;;;;;;;22.80;41.60;;;;;;5076335;28;19963;-60
2022/09/01 11:41:22;;;;;;;;;;;22.90;41.70;;;;;;5092509;28;19924;-60
2022/09/01 11:43:48;;;;;;;;;;;22.90;41.80;;;;;;5092028;28;19971;-60
2022/09/01 11:46:16;;;;;;;;;;;22.90;41.80;;;;;;5075935;28;19964;-61
2022/09/01 11:48:46;;;;;;;;;;;22.90;41.80;;;;;;5091770;28;20231;-61
2022/09/01 11:51:13;;;;;;;;;;;22.90;41.80;;;;;;5075897;28;19924;-60
2022/09/01 11:53:40;;;;;;;;;;;22.90;41.70;;;;;;5090987;28;20370;-61
2022/09/01 11:56:14;;;;;;;;;;;22.90;41.80;;;;;;5091410;28;19920;-61
2022/09/01 11:58:43;;;;;;;;;;;22.90;41.70;;;;;;5076061;28;19928;-61
2022/09/01 12:01:17;;;;;;;;;;;22.90;41.60;;;;;;5090982;28;19928;-61
2022/09/01 12:03:44;;;;;;;;;;;22.90;41.60;;;;;;5091227;28;19928;-61
2022/09/01 12:06:13;;;;;;;;;;;22.90;41.40;;;;;;5091531;28;19969;-60
2022/09/01 12:08:40;;;;;;;;;;;22.90;41.40;;;;;;5091732;28;19963;-60
2022/09/01 12:11:07;;;;;;;;;;;22.90;41.40;;;;;;5074204;28;19920;-60
2022/09/01 12:13:34;;;;;;;;;;;22.90;41.40;;;;;;5074422;28;19966;-60
2022/09/01 12:16:01;;;;;;;;;;;22.90;41.40;;;;;;5075357;28;20285;-60
2022/09/01 12:18:29;;;;;;;;;;;22.90;41.50;;;;;;5074049;28;19920;-60
2022/09/01 12:20:56;;;;;;;;;;;22.90;41.60;;;;;;5091453;28;19924;-59
2022/09/01 12:23:25;;;;;;;;;;;22.90;41.70;;;;;;5075288;28;19927;-59
2022/09/01 12:25:54;;;;;;;;;;;22.90;41.70;;;;;;5091450;28;19967;-60
2022/09/01 12:28:22;;;;;;;;;;;23.00;41.80;;;;;;5090761;28;19924;-59
2022/09/01 12:30:50;;;;;;;;;;;23.00;41.80;;;;;;5090934;28;20023;-61
2022/09/01 12:33:17;;;;;;;;;;;23.00;41.80;;;;;;5090921;28;20043;-61
2022/09/01 12:35:44;;;;;;;;;;;23.00;41.90;;;;;;5074953;28;20369;-61
2022/09/01 12:38:25;;;;;;;;;;;23.00;41.90;;;;;;5090037;28;19920;-61
2022/09/01 12:40:52;;;;;;;;;;;23.00;42.00;;;;;;5091025;28;20388;-61
2022/09/01 12:43:33;;;;;;;;;;;23.00;42.00;;;;;;5090178;28;19978;-61
2022/09/01 12:46:00;;;;;;;;;;;23.00;42.10;;;;;;5090241;28;20045;-61
2022/09/01 12:48:29;;;;;;;;;;;23.00;42.10;;;;;;5090661;28;19927;-61
2022/09/01 12:50:56;;;;;;;;;;;23.00;42.20;;;;;;5074547;28;19921;-60
2022/09/01 12:53:27;;;;;;;;;;;23.10;42.20;;;;;;5074026;28;20258;-60
2022/09/01 12:55:54;;;;;;;;;;;23.00;42.20;;;;;;5091080;28;19924;-61
2022/09/01 12:58:21;;;;;;;;;;;23.10;42.30;;;;;;5090556;28;19920;-60
2022/09/01 13:00:54;;;;;;;;;;;23.10;42.30;;;;;;5074904;28;19924;-60
2022/09/01 13:03:22;;;;;;;;;;;23.10;42.30;;;;;;5090215;28;20124;-60
2022/09/01 13:05:50;;;;;;;;;;;23.10;42.30;;;;;;5073647;28;19924;-60
2022/09/01 13:08:17;;;;;;;;;;;23.10;42.30;;;;;;5089737;28;19927;-60
2022/09/01 13:10:46;;;;;;;;;;;23.10;42.90;;;;;;5089787;28;20022;-60
2022/09/01 13:13:13;;;;;;;;;;;23.10;42.30;;;;;;5090775;28;20034;-60
2022/09/01 13:15:40;;;;;;;;;;;23.10;42.30;;;;;;5089584;28;19924;-60
2022/09/01 13:18:07;;;;;;;;;;;23.10;42.30;;;;;;5074429;28;20357;-61
2022/09/01 13:20:33;;;;;;;;;;;23.10;42.30;;;;;;5090679;28;19921;-60
2022/09/01 13:23:00;;;;;;;;;;;23.10;42.30;;;;;;5090348;28;19990;-61
2022/09/01 13:25:27;;;;;;;;;;;23.10;42.30;;;;;;5089832;28;19920;-61
2022/09/01 13:27:55;;;;;;;;;;;23.10;42.20;;;;;;5089939;28;19956;-61
2022/09/01 13:30:22;;;;;;;;;;;23.10;42.20;;;;;;5090344;28;19921;-61
2022/09/01 13:32:49;;;;;;;;;;;23.10;42.10;;;;;;5090425;28;19920;-61
2022/09/01 13:35:18;;;;;;;;;;;23.10;42.10;;;;;;5072904;28;19925;-60
2022/09/01 13:37:45;;;;;;;;;;;23.10;42.10;;;;;;5090378;28;19924;-60
2022/09/01 13:40:14;;;;;;;;;;;23.10;42.10;;;;;;5074285;28;19924;-59
2022/09/01 13:42:41;;;;;;;;;;;23.10;42.10;;;;;;5090381;28;19970;-61
2022/09/01 13:45:11;;;;;;;;;;;23.10;42.10;;;;;;5089606;28;19952;-61
2022/09/01 13:47:38;;;;;;;;;;;23.10;42.10;;;;;;5074294;28;20372;-61
2022/09/01 13:50:06;;;;;;;;;;;23.10;42.10;;;;;;5089528;28;20265;-60
2022/09/01 13:52:32;;;;;;;;;;;23.10;42.10;;;;;;5089618;28;19950;-61
2022/09/01 13:55:00;;;;;;;;;;;23.10;42.20;;;;;;5073931;28;19921;-61
2022/09/01 13:57:27;;;;;;;;;;;23.10;42.20;;;;;;5089728;28;19920;-60
2022/09/01 13:59:53;;;;;;;;;;;23.10;42.20;;;;;;5089690;28;19924;-61
2022/09/01 14:02:21;;;;;;;;;;;23.20;42.20;;;;;;5089140;28;19927;-60
2022/09/01 14:04:48;;;;;;;;;;;23.10;42.20;;;;;;5089411;28;19921;-60
2022/09/01 14:07:17;;;;;;;;;;;23.20;42.50;;;;;;5089418;28;19921;-60
2022/09/01 14:09:44;;;;;;;;;;;23.20;42.20;;;;;;5073549;28;19974;-60
2022/09/01 14:12:11;;;;;;;;;;;23.20;42.20;;;;;;5088835;28;19924;-60
2022/09/01 14:14:37;;;;;;;;;;;23.20;42.20;;;;;;5073904;28;19936;-60
2022/09/01 14:17:04;;;;;;;;;;;23.20;42.10;;;;;;5074306;28;19928;-60
2022/09/01 14:19:34;;;;;;;;;;;23.20;42.00;;;;;;5073653;28;19924;-60
2022/09/01 14:22:04;;;;;;;;;;;23.20;42.00;;;;;;5090091;28;19939;-60
2022/09/01 14:24:31;;;;;;;;;;;23.20;42.00;;;;;;5074619;28;19924;-60
2022/09/01 14:26:58;;;;;;;;;;;23.20;42.00;;;;;;5073263;28;19921;-61
2022/09/01 14:29:26;;;;;;;;;;;23.20;41.90;;;;;;5089238;28;19921;-61